Time;durP1;ratioP1;P1;durP2;ratioP2;P2;SDS_P1;SDS_P2;PMS_P1;PMS_P2;Temp;Humidity;BMP_temperature;BMP_pressure;BME280_temperature;BME280_humidity;BME280_pressure;Samples;Min_cycle;Max_cycle;Signal;HPM_P1;HPM_P2
2022/01/14 00:02:24;;;;;;;81.20;19.38;;;;;;;1.24;100.00;103828.56;5053347;28;20099;-82
2022/01/14 00:04:50;;;;;;;60.40;18.77;;;;;;;1.27;100.00;103836.47;5052661;28;20441;-82
2022/01/14 00:07:16;;;;;;;49.00;18.15;;;;;;;1.28;100.00;103830.56;5052404;28;20032;-82
2022/01/14 00:09:42;;;;;;;43.10;17.73;;;;;;;1.28;100.00;103830.56;5053180;28;20029;-82
2022/01/14 00:12:15;;;;;;;63.58;19.45;;;;;;;1.29;100.00;103835.78;5051330;28;20059;-83
2022/01/14 00:14:41;;;;;;;47.42;17.48;;;;;;;1.32;100.00;103828.25;5051708;28;20087;-82
2022/01/14 00:17:09;;;;;;;57.60;18.40;;;;;;;1.29;100.00;103820.34;5052660;28;20476;-82
2022/01/14 00:19:35;;;;;;;70.18;19.25;;;;;;;1.28;100.00;103823.72;5052393;28;20036;-82
2022/01/14 00:22:07;;;;;;;63.10;17.67;;;;;;;1.26;100.00;103827.88;5052786;28;20033;-82
2022/01/14 00:31:41;;;;;;;64.95;18.90;;;;;;;1.25;100.00;103822.66;5053087;28;20467;-82
2022/01/14 00:33:02;;;;;;;60.20;18.15;;;;;;;1.19;100.00;103815.44;5053070;28;20094;-82
2022/01/14 00:35:27;;;;;;;54.67;17.50;;;;;;;1.16;100.00;103812.69;5052691;28;20541;-82
2022/01/14 00:37:53;;;;;;;75.72;19.50;;;;;;;1.13;100.00;103810.78;5051915;28;20037;-82
2022/01/14 00:40:18;;;;;;;63.92;19.00;;;;;;;1.13;100.00;103803.09;5051915;28;20104;-82
2022/01/14 00:42:45;;;;;;;73.13;19.73;;;;;;;1.12;100.00;103800.44;5051813;28;20071;-82
2022/01/14 00:45:11;;;;;;;51.20;17.88;;;;;;;1.11;100.00;103799.56;5051067;28;20513;-82
2022/01/14 00:47:39;;;;;;;54.85;18.10;;;;;;;1.14;100.00;103806.53;5051532;28;20044;-82
2022/01/14 00:50:07;;;;;;;71.30;18.95;;;;;;;1.12;100.00;103780.75;5052183;28;20464;-82
2022/01/14 00:52:33;;;;;;;65.40;18.02;;;;;;;1.12;100.00;103791.03;5052263;28;20396;-82
2022/01/14 00:54:58;;;;;;;55.10;16.52;;;;;;;1.11;100.00;103786.72;5051633;28;20115;-82
2022/01/14 01:00:08;;;;;;;58.95;17.35;;;;;;;1.08;100.00;103773.66;5051046;28;20132;-82
2022/01/14 01:02:33;;;;;;;52.05;15.93;;;;;;;1.08;100.00;103767.59;5050658;28;20107;-82
2022/01/14 01:04:58;;;;;;;61.22;15.82;;;;;;;1.07;100.00;103769.28;5052018;28;20028;-82
2022/01/14 01:07:24;;;;;;;49.92;16.98;;;;;;;1.10;100.00;103769.50;5051903;28;20033;-82
2022/01/14 01:09:50;;;;;;;66.28;16.35;;;;;;;1.08;100.00;103765.97;5051447;28;20024;-82
2022/01/14 01:12:47;;;;;;;68.20;17.38;;;;;;;1.06;100.00;103762.38;5051344;28;20484;-82
2022/01/14 01:15:05;;;;;;;52.40;16.10;;;;;;;1.00;100.00;103762.00;5051388;28;20082;-82
2022/01/14 01:17:32;;;;;;;66.00;16.58;;;;;;;0.98;100.00;103771.31;5051366;28;20057;-82
2022/01/14 01:19:58;;;;;;;56.08;15.65;;;;;;;0.96;100.00;103757.47;5051962;28;20029;-82
2022/01/14 01:22:23;;;;;;;60.70;16.05;;;;;;;0.95;100.00;103750.56;5049925;28;20052;-82
2022/01/14 01:24:48;;;;;;;71.20;16.38;;;;;;;0.92;100.00;103753.84;5051453;28;20108;-82
2022/01/14 01:27:15;;;;;;;70.53;16.98;;;;;;;0.89;100.00;103748.50;5051305;28;20072;-82
2022/01/14 01:32:08;;;;;;;41.08;15.57;;;;;;;0.96;100.00;103747.19;5051457;28;20094;-82
2022/01/14 01:34:34;;;;;;;49.42;16.15;;;;;;;0.98;100.00;103750.78;5051806;28;20234;-82
2022/01/14 01:37:01;;;;;;;43.30;15.05;;;;;;;0.95;100.00;103760.84;5050696;28;20028;-82
2022/01/14 01:39:31;;;;;;;83.10;17.88;;;;;;;0.91;100.00;103761.41;5051569;28;20036;-82
2022/01/14 01:42:00;;;;;;;47.28;15.93;;;;;;;0.90;100.00;103763.09;5048973;28;20029;-82
2022/01/14 01:44:27;;;;;;;52.55;15.85;;;;;;;0.89;100.00;103751.06;5050437;28;20476;-82
2022/01/14 01:46:54;;;;;;;68.90;16.67;;;;;;;0.87;100.00;103751.75;5051360;28;20033;-82
2022/01/14 01:49:22;;;;;;;55.03;15.35;;;;;;;0.85;100.00;103748.19;5051894;28;20095;-82
2022/01/14 01:51:49;;;;;;;46.95;15.50;;;;;;;0.86;100.00;103739.72;5050762;28;20385;-82
2022/01/14 01:54:16;;;;;;;47.58;15.90;;;;;;;0.87;100.00;103741.47;5051200;28;20408;-82
2022/01/14 01:56:42;;;;;;;68.93;16.48;;;;;;;0.83;100.00;103729.25;5050173;28;20025;-82
2022/01/14 01:59:09;;;;;;;53.15;15.10;;;;;;;0.86;100.00;103739.72;5049296;28;20029;-82
2022/01/14 02:01:35;;;;;;;76.30;16.55;;;;;;;0.84;100.00;103741.28;5051513;28;20025;-82
2022/01/14 02:04:00;;;;;;;78.82;16.73;;;;;;;0.80;100.00;103745.34;5050955;28;20561;-82
2022/01/14 02:06:25;;;;;;;67.55;16.27;;;;;;;0.78;100.00;103741.78;5050024;28;20100;-82
2022/01/14 02:08:51;;;;;;;63.92;15.75;;;;;;;0.80;100.00;103750.47;5051434;28;20025;-82
2022/01/14 02:11:17;;;;;;;81.15;17.13;;;;;;;0.81;100.00;103746.22;5051397;28;20025;-82
2022/01/14 02:13:43;;;;;;;49.95;15.50;;;;;;;0.81;100.00;103748.78;5049835;28;20032;-82
2022/01/14 02:18:39;;;;;;;47.00;14.77;;;;;;;0.82;100.00;103736.06;5050068;28;20532;-82
2022/01/14 02:24:09;;;;;;;65.22;15.13;;;;;;;0.74;100.00;103728.66;5051717;28;20047;-82
2022/01/14 02:26:44;;;;;;;;;;;;;;;0.77;100.00;103734.00;5049252;28;20045;-82
2022/01/14 02:29:11;;;;;;;46.40;13.90;;;;;;;0.69;100.00;103720.69;5050034;28;19932;-82
2022/01/14 02:31:36;;;;;;;37.72;14.52;;;;;;;0.72;100.00;103723.44;5051166;28;20029;-82
2022/01/14 02:34:01;;;;;;;40.85;13.93;;;;;;;0.70;100.00;103710.50;5051044;28;20464;-82
2022/01/14 02:36:27;;;;;;;39.22;13.02;;;;;;;0.72;100.00;103715.75;5054524;28;20124;-82
2022/01/14 02:38:53;;;;;;;37.17;13.77;;;;;;;0.66;100.00;103708.53;5054509;28;20085;-82
2022/01/14 02:41:18;;;;;;;50.65;13.25;;;;;;;0.66;100.00;103712.78;5054558;28;20033;-82
2022/01/14 02:43:44;;;;;;;48.28;13.82;;;;;;;0.59;100.00;103702.91;5053975;28;20464;-82
2022/01/14 02:46:10;;;;;;;49.58;13.05;;;;;;;0.57;100.00;103704.50;5054539;28;20025;-82
2022/01/14 02:48:35;;;;;;;81.13;15.00;;;;;;;0.56;100.00;103711.31;5053880;28;20419;-82
2022/01/14 02:51:12;;;;;;;53.65;13.77;;;;;;;0.58;100.00;103708.81;5055050;28;20056;-82
2022/01/14 02:56:10;;;;;;;71.60;14.85;;;;;;;0.57;100.00;103707.06;5054372;28;20103;-82
2022/01/14 02:58:38;;;;;;;53.08;13.45;;;;;;;0.54;100.00;103696.59;5053685;28;20040;-82
2022/01/14 03:01:15;;;;;;;45.53;14.38;;;;;;;0.56;100.00;103690.78;5053951;28;20048;-82
2022/01/14 03:03:43;;;;;;;67.20;14.20;;;;;;;0.55;100.00;103694.13;5054450;28;20037;-82
2022/01/14 03:06:09;;;;;;;46.45;13.65;;;;;;;0.56;100.00;103706.19;5054255;28;20033;-82
2022/01/14 03:08:35;;;;;;;46.15;14.32;;;;;;;0.58;100.00;103708.81;5053644;28;20526;-82
2022/01/14 03:11:07;;;;;;;42.58;15.23;;;;;;;0.58;100.00;103704.56;5054292;28;20082;-82
2022/01/14 03:13:33;;;;;;;46.55;13.77;;;;;;;0.55;100.00;103701.81;5053106;28;20025;-82
2022/01/14 03:16:00;;;;;;;38.58;13.80;;;;;;;0.49;100.00;103698.88;5052732;28;20025;-82
2022/01/14 03:18:47;;;;;;;60.90;12.90;;;;;;;0.51;100.00;103701.53;5053937;28;20491;-82
2022/01/14 03:21:16;;;;;;;49.42;13.27;;;;;;;0.52;100.00;103700.72;5054210;28;20079;-82
2022/01/14 03:23:48;;;;;;;51.13;14.10;;;;;;;0.53;100.00;103702.53;5053134;28;20029;-82
2022/01/14 03:26:15;;;;;;;44.25;13.63;;;;;;;0.53;100.00;103700.84;5053470;28;20028;-81
2022/01/14 03:28:41;;;;;;;74.50;14.07;;;;;;;0.50;100.00;103698.09;5052174;28;20036;-82
2022/01/14 03:31:07;;;;;;;35.15;13.75;;;;;;;0.48;100.00;103699.66;5053065;28;20029;-82
2022/01/14 03:33:33;;;;;;;37.33;13.45;;;;;;;0.51;100.00;103706.66;5054042;28;20048;-82
2022/01/14 03:35:59;;;;;;;63.00;15.70;;;;;;;0.50;100.00;103705.78;5052812;28;20032;-82
2022/01/14 03:38:24;;;;;;;60.83;15.43;;;;;;;0.50;100.00;103708.34;5053576;28;20044;-82
2022/01/14 03:40:50;;;;;;;64.40;14.05;;;;;;;0.47;100.00;103709.03;5053814;28;20079;-82
2022/01/14 03:43:15;;;;;;;63.47;14.18;;;;;;;0.47;100.00;103706.47;5050206;28;20440;-82
2022/01/14 03:45:41;;;;;;;77.75;15.38;;;;;;;0.42;100.00;103702.72;5052598;28;20039;-82
2022/01/14 03:48:07;;;;;;;56.92;13.43;;;;;;;0.39;100.00;103696.50;5052914;28;20397;-82
2022/01/14 03:50:33;;;;;;;39.63;13.20;;;;;;;0.41;100.00;103692.38;5052181;28;20032;-82
2022/01/14 03:52:59;;;;;;;43.55;13.50;;;;;;;0.46;100.00;103693.56;5053458;28;20043;-82
2022/01/14 03:55:24;;;;;;;71.95;13.57;;;;;;;0.45;100.00;103691.75;5053487;28;20020;-82
2022/01/14 03:57:49;;;;;;;70.88;14.38;;;;;;;0.42;100.00;103701.81;5051708;28;20424;-82
2022/01/14 04:00:16;;;;;;;37.90;12.98;;;;;;;0.41;100.00;103697.50;5052251;28;20086;-82
2022/01/14 04:02:41;;;;;;;84.43;13.07;;;;;;;0.41;100.00;103700.94;5053276;28;20499;-82
2022/01/14 04:05:07;;;;;;;82.10;15.02;;;;;;;0.38;100.00;103699.88;5052533;28;20029;-82
2022/01/14 04:07:32;;;;;;;83.43;12.73;;;;;;;0.34;100.00;103698.78;5053074;28;20047;-82
2022/01/14 04:09:58;;;;;;;84.88;14.27;;;;;;;0.33;100.00;103701.25;5053072;28;20159;-82
2022/01/14 04:12:43;;;;;;;75.75;14.00;;;;;;;0.31;100.00;103706.28;5052124;28;20032;-82
2022/01/14 04:17:52;;;;;;;52.47;13.32;;;;;;;0.35;100.00;103704.78;5052936;28;20099;-82
2022/01/14 04:20:18;;;;;;;51.47;14.10;;;;;;;0.34;100.00;103697.91;5052533;28;20025;-82
2022/01/14 04:22:43;;;;;;;99.93;14.63;;;;;;;0.35;100.00;103697.97;5053179;28;20567;-82
2022/01/14 04:25:08;;;;;;;138.73;15.32;;;;;;;0.29;100.00;103691.56;5051767;28;20196;-82
2022/01/14 04:27:33;;;;;;;97.03;14.85;;;;;;;0.25;100.00;103692.16;5051020;28;20056;-82
2022/01/14 04:29:59;;;;;;;86.40;14.10;;;;;;;0.23;100.00;103695.53;5052321;28;20087;-82
2022/01/14 04:32:24;;;;;;;67.63;14.73;;;;;;;0.22;100.00;103691.16;5052180;28;20025;-82
2022/01/14 04:34:49;;;;;;;72.47;14.05;;;;;;;0.18;100.00;103686.63;5053018;28;20396;-82
2022/01/14 04:37:14;;;;;;;128.50;14.43;;;;;;;0.13;100.00;103682.00;5052022;28;20437;-82
2022/01/14 04:39:40;;;;;;;74.88;13.95;;;;;;;0.13;100.00;103685.47;5051902;28;20116;-82
2022/01/14 04:42:06;;;;;;;81.07;14.25;;;;;;;0.13;100.00;103677.78;5051545;28;20443;-82
2022/01/14 04:44:31;;;;;;;71.32;14.95;;;;;;;0.20;100.00;103685.06;5052749;28;20231;-82
2022/01/14 04:47:12;;;;;;;46.38;12.77;;;;;;;0.24;100.00;103675.88;5051418;28;20056;-82
2022/01/14 04:49:37;;;;;;;36.38;13.40;;;;;;;0.26;100.00;103674.28;5052441;28;20036;-82
2022/01/14 04:52:03;;;;;;;81.32;14.60;;;;;;;0.28;100.00;103665.03;5051673;28;20032;-82
2022/01/14 04:54:29;;;;;;;80.90;13.25;;;;;;;0.27;100.00;103662.38;5051905;28;20036;-82
2022/01/14 04:56:54;;;;;;;76.00;13.40;;;;;;;0.23;100.00;103661.28;5050744;28;20029;-82
2022/01/14 04:59:19;;;;;;;36.03;12.98;;;;;;;0.25;100.00;103661.38;5051232;28;20025;-81
2022/01/14 05:01:44;;;;;;;63.35;13.77;;;;;;;0.25;100.00;103651.13;5051584;28;20042;-82
2022/01/14 05:04:10;;;;;;;54.28;14.50;;;;;;;0.20;100.00;103640.56;5052136;28;20037;-82
2022/01/14 05:06:35;;;;;;;66.95;14.05;;;;;;;0.26;100.00;103647.75;5052286;28;20107;-82
2022/01/14 05:09:05;;;;;;;48.55;13.38;;;;;;;0.26;100.00;103650.31;5051060;28;20035;-81
2022/01/14 05:11:39;;;;;;;91.72;15.20;;;;;;;0.21;100.00;103640.66;5052170;28;20082;-82
2022/01/14 05:14:05;;;;;;;62.75;12.30;;;;;;;0.20;100.00;103636.31;5051216;28;20029;-82
2022/01/14 05:16:30;;;;;;;45.95;13.07;;;;;;;0.18;100.00;103650.72;5051333;28;20036;-82
2022/01/14 05:18:55;;;;;;;27.48;12.27;;;;;;;0.21;100.00;103644.91;5051345;28;20071;-82
2022/01/14 05:21:20;;;;;;;45.85;12.18;;;;;;;0.19;100.00;103641.34;5051701;28;20511;-82
2022/01/14 05:23:46;;;;;;;60.95;13.30;;;;;;;0.16;100.00;103636.94;5051924;28;20028;-82
2022/01/14 05:26:11;;;;;;;62.78;13.88;;;;;;;0.18;100.00;103640.47;5050359;28;20465;-82
2022/01/14 05:28:37;;;;;;;63.03;13.10;;;;;;;0.20;100.00;103649.16;5050931;28;20036;-82
2022/01/14 05:31:02;;;;;;;48.88;13.07;;;;;;;0.17;100.00;103638.69;5051454;28;20040;-82
2022/01/14 05:33:27;;;;;;;67.80;12.93;;;;;;;0.11;100.00;103640.88;5051662;28;20028;-82
2022/01/14 05:35:53;;;;;;;27.90;12.45;;;;;;;0.11;100.00;103639.97;5051139;28;20025;-82
2022/01/14 05:38:18;;;;;;;44.83;12.75;;;;;;;0.11;100.00;103640.88;5051704;28;20115;-82
2022/01/14 05:40:43;;;;;;;54.63;13.63;;;;;;;0.08;100.00;103622.72;5050931;28;20760;-82
2022/01/14 05:43:08;;;;;;;83.28;14.32;;;;;;;0.04;100.00;103636.13;5050518;28;20037;-82
2022/01/14 05:45:34;;;;;;;54.38;12.93;;;;;;;0.01;100.00;103635.06;5050881;28;20033;-82
2022/01/14 05:47:59;;;;;;;47.97;11.90;;;;;;;0.02;100.00;103624.88;5050551;28;20401;-82
2022/01/14 05:50:26;;;;;;;31.40;13.02;;;;;;;-0.01;100.00;103628.13;5050696;28;20083;-82
2022/01/14 05:52:52;;;;;;;53.75;12.23;;;;;;;-0.02;100.00;103628.03;5051663;28;20044;-82
2022/01/14 05:55:20;;;;;;;53.22;13.05;;;;;;;-0.01;100.00;103627.25;5051593;28;20033;-82
2022/01/14 05:57:46;;;;;;;39.47;12.88;;;;;;;-0.01;100.00;103619.53;5049435;28;20112;-82
2022/01/14 06:00:17;;;;;;;72.20;14.82;;;;;;;-0.03;100.00;103627.16;5050218;28;20029;-82
2022/01/14 06:02:44;;;;;;;44.45;12.80;;;;;;;-0.05;100.00;103623.59;5051079;28;20079;-82
2022/01/14 06:05:10;;;;;;;45.17;13.52;;;;;;;-0.03;100.00;103628.84;5050727;28;20111;-82
2022/01/14 06:07:35;;;;;;;36.78;13.13;;;;;;;-0.08;100.00;103625.97;5051354;28;20120;-82
2022/01/14 06:10:00;;;;;;;49.42;13.77;;;;;;;-0.07;100.00;103624.28;5053888;28;20503;-82
2022/01/14 06:12:26;;;;;;;52.78;13.60;;;;;;;-0.06;100.00;103628.63;5054811;28;20028;-82
2022/01/14 06:14:51;;;;;;;47.38;14.07;;;;;;;-0.06;100.00;103619.25;5054392;28;20380;-82
2022/01/14 06:17:16;;;;;;;35.92;13.60;;;;;;;-0.03;100.00;103631.41;5055461;28;20040;-82
2022/01/14 06:19:41;;;;;;;56.70;14.68;;;;;;;-0.05;100.00;103631.28;5054352;28;20473;-82
2022/01/14 06:22:07;;;;;;;41.83;14.02;;;;;;;-0.04;100.00;103635.63;5055393;28;20032;-82
2022/01/14 06:24:32;;;;;;;38.33;12.80;;;;;;;-0.05;100.00;103631.28;5055277;28;20036;-82
2022/01/14 06:26:57;;;;;;;49.45;14.57;;;;;;;-0.04;100.00;103625.34;5054053;28;20044;-82
2022/01/14 06:29:23;;;;;;;65.82;15.07;;;;;;;-0.03;100.00;103639.97;5053809;28;20037;-82
2022/01/14 06:31:48;;;;;;;42.80;13.82;;;;;;;-0.02;100.00;103633.16;5054389;28;20017;-82
2022/01/14 06:34:14;;;;;;;39.45;14.40;;;;;;;0.01;100.00;103642.75;5055018;28;20036;-82
2022/01/14 06:36:41;;;;;;;46.28;14.70;;;;;;;0.01;100.00;103640.19;5054366;28;20043;-82
2022/01/14 06:39:07;;;;;;;43.05;13.93;;;;;;;0.00;100.00;103631.59;5053232;28;20127;-81
2022/01/14 06:41:32;;;;;;;32.17;13.70;;;;;;;0.03;100.00;103629.19;5054824;28;20385;-82
2022/01/14 06:43:58;;;;;;;53.42;14.95;;;;;;;0.04;100.00;103636.13;5054706;28;20017;-82
2022/01/14 06:46:23;;;;;;;49.10;16.30;;;;;;;0.04;100.00;103628.44;5054009;28;20044;-82
2022/01/14 06:48:48;;;;;;;70.50;16.13;;;;;;;0.02;100.00;103631.69;5054305;28;20473;-82
2022/01/14 06:51:15;;;;;;;40.85;15.32;;;;;;;-0.03;100.00;103624.59;5053407;28;20028;-82
2022/01/14 06:53:41;;;;;;;49.17;16.02;;;;;;;-0.08;100.00;103612.25;5053884;28;20017;-82
2022/01/14 06:56:07;;;;;;;79.82;17.92;;;;;;;-0.05;100.00;103608.19;5053111;28;20404;-81
2022/01/14 06:58:33;;;;;;;56.85;17.05;;;;;;;-0.06;100.00;103626.06;5054158;28;20032;-82
2022/01/14 07:00:58;;;;;;;66.13;17.58;;;;;;;-0.08;100.00;103618.25;5053392;28;20052;-81
2022/01/14 07:03:23;;;;;;;58.13;17.20;;;;;;;-0.06;100.00;103631.19;5055078;28;20461;-82
2022/01/14 07:05:49;;;;;;;71.43;17.83;;;;;;;-0.04;100.00;103630.50;5054657;28;20111;-82
2022/01/14 07:08:14;;;;;;;98.18;18.65;;;;;;;-0.09;100.00;103638.69;5053035;28;20025;-82
2022/01/14 07:10:40;;;;;;;74.43;17.13;;;;;;;-0.10;100.00;103631.78;5053943;28;20033;-82
2022/01/14 07:13:05;;;;;;;51.97;16.50;;;;;;;-0.08;100.00;103637.91;5053740;28;20021;-82
2022/01/14 07:15:31;;;;;;;64.60;17.77;;;;;;;-0.08;100.00;103641.34;5053479;28;20033;-82
2022/01/14 07:17:56;;;;;;;52.60;17.17;;;;;;;-0.03;100.00;103647.69;5054042;28;20024;-81
2022/01/14 07:20:22;;;;;;;73.47;17.90;;;;;;;-0.03;100.00;103641.66;5053287;28;20116;-82
2022/01/14 07:22:47;;;;;;;109.05;18.50;;;;;;;-0.06;100.00;103644.03;5053116;28;20062;-82
2022/01/14 07:25:13;;;;;;;95.72;18.15;;;;;;;-0.05;100.00;103653.47;5051145;28;20482;-81
2022/01/14 07:27:39;;;;;;;101.65;19.20;;;;;;;-0.08;100.00;103660.97;5053799;28;20093;-82
2022/01/14 07:30:05;;;;;;;69.95;18.73;;;;;;;-0.08;100.00;103659.28;5053248;28;20116;-82
2022/01/14 07:32:30;;;;;;;118.97;20.23;;;;;;;-0.07;100.00;103663.63;5053923;28;20025;-82
2022/01/14 07:34:56;;;;;;;57.45;17.95;;;;;;;-0.07;100.00;103642.22;5052252;28;20024;-82
2022/01/14 07:37:21;;;;;;;67.53;18.48;;;;;;;-0.08;100.00;103645.59;5053916;28;20064;-82
2022/01/14 07:39:47;;;;;;;69.75;17.80;;;;;;;-0.06;100.00;103649.16;5052295;28;20033;-82
2022/01/14 07:42:12;;;;;;;63.38;18.33;;;;;;;-0.07;100.00;103647.34;5052878;28;20087;-82
2022/01/14 07:44:39;;;;;;;52.05;18.08;;;;;;;-0.05;100.00;103653.47;5053604;28;20029;-81
2022/01/14 07:47:05;;;;;;;75.20;18.10;;;;;;;-0.06;100.00;103644.03;5048789;28;20021;-82
2022/01/14 07:49:30;;;;;;;53.75;17.45;;;;;;;-0.04;100.00;103653.56;5052274;28;20518;-82
2022/01/14 07:51:55;;;;;;;53.40;18.13;;;;;;;-0.02;100.00;103651.13;5053395;28;20057;-81
2022/01/14 07:54:21;;;;;;;67.00;17.40;;;;;;;-0.03;100.00;103636.53;5052057;28;20111;-82
2022/01/14 07:56:51;;;;;;;55.83;18.40;;;;;;;-0.02;100.00;103641.75;5059913;28;20376;-82
2022/01/14 07:59:19;;;;;;;67.35;18.52;;;;;;;-0.03;100.00;103646.78;5073302;28;20384;-81
2022/01/14 08:01:47;;;;;;;53.72;18.02;;;;;;;-0.07;100.00;103640.53;5056942;28;20074;-82
2022/01/14 08:04:16;;;;;;;78.45;18.35;;;;;;;-0.05;100.00;103638.09;5050693;28;20379;-82
2022/01/14 08:06:46;;;;;;;85.30;18.45;;;;;;;-0.06;100.00;103636.34;5045563;28;20025;-82
2022/01/14 08:09:12;;;;;;;88.63;18.67;;;;;;;-0.06;100.00;103638.91;5052041;28;20051;-82
2022/01/14 08:11:38;;;;;;;76.75;19.25;;;;;;;-0.13;100.00;103637.63;5051761;28;20025;-81
2022/01/14 08:14:03;;;;;;;76.65;19.23;;;;;;;-0.05;100.00;103644.13;5042621;28;20942;-82
2022/01/14 08:16:28;;;;;;;61.83;18.88;;;;;;;0.00;100.00;103652.13;5052180;28;20017;-82
2022/01/14 08:18:54;;;;;;;91.97;20.13;;;;;;;0.03;100.00;103652.28;5052443;28;20025;-82
2022/01/14 08:21:19;;;;;;;87.75;19.75;;;;;;;0.03;100.00;103649.72;5037464;28;20037;-82
2022/01/14 08:23:44;;;;;;;94.35;20.17;;;;;;;0.04;100.00;103645.50;5047449;28;20033;-82
2022/01/14 08:26:09;;;;;;;44.05;18.58;;;;;;;0.12;100.00;103636.63;5049008;28;20404;-82
2022/01/14 08:28:35;;;;;;;73.13;20.33;;;;;;;0.14;100.00;103637.63;5032960;28;20022;-81
2022/01/14 08:31:00;;;;;;;67.47;20.50;;;;;;;0.12;100.00;103641.75;5035396;28;20037;-82
2022/01/14 08:33:25;;;;;;;53.08;19.30;;;;;;;0.15;100.00;103639.38;5051164;28;20402;-82
2022/01/14 08:35:51;;;;;;;87.30;20.75;;;;;;;0.16;100.00;103636.00;5052099;28;20048;-82
2022/01/14 08:38:16;;;;;;;93.82;20.63;;;;;;;0.20;100.00;103625.19;5051462;28;20503;-83
2022/01/14 08:40:42;;;;;;;109.78;22.58;;;;;;;0.21;100.00;103630.41;5034610;28;20032;-82
2022/01/14 08:43:07;;;;;;;54.60;20.25;;;;;;;0.29;100.00;103624.84;5032611;28;20520;-82
2022/01/14 08:45:34;;;;;;;142.15;24.35;;;;;;;0.30;100.00;103631.78;5032134;28;20120;-82
2022/01/14 08:47:59;;;;;;;81.03;21.88;;;;;;;0.35;100.00;103640.63;5032481;28;20083;-82
2022/01/14 08:50:29;;;;;;;94.10;22.27;;;;;;;0.40;100.00;103652.09;5044406;28;20029;-83
2022/01/14 08:52:55;;;;;;;58.95;21.77;;;;;;;0.46;100.00;103657.63;5046834;28;20107;-83
2022/01/14 08:55:21;;;;;;;61.80;22.55;;;;;;;0.52;100.00;103657.09;5051650;28;20061;-83
2022/01/14 08:57:47;;;;;;;63.15;21.42;;;;;;;0.54;100.00;103651.28;5051420;28;20037;-83
2022/01/14 09:00:15;;;;;;;68.97;22.15;;;;;;;0.56;100.00;103635.97;5050454;28;20131;-83
2022/01/14 09:02:40;;;;;;;53.92;22.83;;;;;;;0.61;100.00;103627.75;5051870;28;20044;-83
2022/01/14 09:05:06;;;;;;;51.15;23.10;;;;;;;0.64;100.00;103630.50;5052170;28;20025;-83
2022/01/14 09:07:32;;;;;;;86.20;22.90;;;;;;;0.63;100.00;103621.03;5051033;28;20063;-83
2022/01/14 09:09:57;;;;;;;74.38;23.58;;;;;;;0.67;100.00;103628.13;5046348;28;20056;-83
2022/01/14 09:12:22;;;;;;;80.85;23.70;;;;;;;0.73;100.00;103642.16;5052160;28;20025;-83
2022/01/14 09:14:48;;;;;;;76.22;23.30;;;;;;;0.78;100.00;103633.03;5050561;28;20052;-83
2022/01/14 09:17:13;;;;;;;71.40;23.33;;;;;;;0.81;100.00;103636.69;5052141;28;20880;-83
2022/01/14 09:19:40;;;;;;;60.92;22.70;;;;;;;0.84;100.00;103648.81;5047147;28;20025;-83
2022/01/14 09:22:07;;;;;;;120.95;23.77;;;;;;;0.77;100.00;103652.69;5050318;28;20040;-83
2022/01/14 09:24:32;;;;;;;100.43;23.92;;;;;;;0.75;100.00;103637.97;5036668;28;20064;-84
2022/01/14 09:26:58;;;;;;;69.80;23.27;;;;;;;0.79;100.00;103647.69;5044149;28;20073;-83
2022/01/14 09:29:23;;;;;;;91.53;23.58;;;;;;;0.86;100.00;103639.53;5050785;28;20071;-84
2022/01/14 09:31:48;;;;;;;94.85;23.92;;;;;;;0.91;100.00;103625.28;5042827;28;20021;-83
2022/01/14 09:34:14;;;;;;;55.75;23.67;;;;;;;0.97;100.00;103643.63;5044828;28;20716;-83
2022/01/14 09:36:42;;;;;;;83.20;24.67;;;;;;;1.04;100.00;103640.63;5033246;28;20028;-83
2022/01/14 09:39:08;;;;;;;70.78;24.33;;;;;;;1.12;100.00;103644.56;5049534;28;20028;-83
2022/01/14 09:41:33;;;;;;;69.13;23.50;;;;;;;1.18;100.00;103636.34;5040247;28;20105;-83
2022/01/14 09:44:01;;;;;;;52.60;22.75;;;;;;;1.21;100.00;103623.69;5030962;28;20406;-84
2022/01/14 09:46:26;;;;;;;53.22;22.98;;;;;;;1.27;100.00;103638.56;5037134;28;20025;-83
2022/01/14 09:48:51;;;;;;;70.53;24.00;;;;;;;1.31;100.00;103640.53;5063938;28;20031;-83
2022/01/14 09:51:17;;;;;;;75.97;24.25;;;;;;;1.35;100.00;103640.81;5068108;28;20025;-83
2022/01/14 09:53:42;;;;;;;77.95;23.88;;;;;;;1.40;100.00;103646.19;5050090;28;20029;-83
2022/01/14 09:56:07;;;;;;;61.15;24.05;;;;;;;1.49;100.00;103656.16;5050766;28;20472;-83
2022/01/14 09:58:37;;;;;;;87.20;24.50;;;;;;;1.53;100.00;103647.81;5051569;28;20025;-83
2022/01/14 10:01:23;;;;;;;51.33;23.73;;;;;;;1.69;100.00;103659.88;5050927;28;20395;-83
2022/01/14 10:04:01;;;;;;;61.42;22.63;;;;;;;1.72;100.00;103662.63;5050822;28;20021;-83
2022/01/14 10:06:45;;;;;;;66.82;23.40;;;;;;;1.77;100.00;103666.38;5051104;28;20028;-82
2022/01/14 10:09:20;;;;;;;;;;;;;;;1.77;100.00;103664.69;5048756;28;20033;-85
2022/01/14 10:12:04;;;;;;;51.22;21.73;;;;;;;1.71;100.00;103660.88;5048528;28;19959;-82
2022/01/14 10:14:30;;;;;;;57.40;21.30;;;;;;;1.69;100.00;103670.16;5050001;28;20040;-82
2022/01/14 10:16:58;;;;;;;50.60;21.92;;;;;;;1.67;100.00;103670.09;5053813;28;20013;-84
2022/01/14 10:19:27;;;;;;;54.03;23.67;;;;;;;1.67;100.00;103675.25;5049800;28;20464;-83
2022/01/14 10:21:53;;;;;;;42.58;22.48;;;;;;;1.67;100.00;103667.53;5056670;28;20021;-84
2022/01/14 10:24:19;;;;;;;57.53;22.20;;;;;;;1.71;100.00;103678.88;5047521;28;20078;-84
2022/01/14 10:26:53;;;;;;;62.50;23.25;;;;;;;1.71;100.00;103674.63;5049133;28;20053;-84
2022/01/14 10:29:45;;;;;;;61.72;23.20;;;;;;;1.75;100.00;103676.56;5049159;28;20028;-84
2022/01/14 10:32:12;;;;;;;49.60;23.02;;;;;;;1.74;100.00;103672.22;5046365;28;20495;-84
2022/01/14 10:34:37;;;;;;;48.15;22.35;;;;;;;1.76;100.00;103669.72;5045625;28;20354;-83
2022/01/14 10:37:14;;;;;;;63.17;23.75;;;;;;;1.82;100.00;103667.50;5048487;28;20024;-84
2022/01/14 10:39:46;;;;;;;48.03;22.73;;;;;;;1.87;100.00;103671.25;5048493;28;20027;-84
2022/01/14 10:42:29;;;;;;;46.10;22.52;;;;;;;1.92;100.00;103666.34;5049029;28;20540;-83
2022/01/14 10:44:55;;;;;;;47.50;22.70;;;;;;;1.93;100.00;103656.16;5047893;28;20492;-84
2022/01/14 10:47:23;;;;;;;47.45;23.92;;;;;;;1.99;100.00;103661.63;5050267;28;20313;-84
2022/01/14 10:49:54;;;;;;;50.00;24.98;;;;;;;2.05;100.00;103651.69;5044180;28;20055;-84
2022/01/14 10:52:25;;;;;;;45.15;24.25;;;;;;;2.14;100.00;103645.31;5048358;28;20067;-85
2022/01/14 10:54:53;;;;;;;47.63;24.33;;;;;;;2.21;100.00;103650.88;5051791;28;20377;-84
2022/01/14 10:57:27;;;;;;;48.33;23.33;;;;;;;2.20;100.00;103645.66;5053908;28;20099;-84
2022/01/14 10:59:56;;;;;;;49.42;23.40;;;;;;;2.20;100.00;103646.53;5050290;28;20082;-84
2022/01/14 11:02:45;;;;;;;44.90;23.17;;;;;;;2.19;100.00;103642.19;5054667;28;20108;-84
2022/01/14 11:05:12;;;;;;;41.78;23.60;;;;;;;2.16;100.00;103644.59;5054568;28;20028;-84
2022/01/14 11:07:40;;;;;;;43.53;22.40;;;;;;;2.17;100.00;103641.22;5036630;28;20044;-84
2022/01/14 11:10:26;;;;;;;48.67;24.90;;;;;;;2.24;100.00;103645.91;5035614;28;20036;-84
2022/01/14 11:12:56;;;;;;;42.88;23.02;;;;;;;2.24;100.00;103637.28;5053549;28;20021;-85
2022/01/14 11:15:23;;;;;;;45.30;23.83;;;;;;;2.24;100.00;103634.72;5054296;28;20032;-84
2022/01/14 11:17:52;;;;;;;49.35;26.58;;;;;;;2.28;100.00;103627.22;5054122;28;20394;-84
2022/01/14 11:20:30;;;;;;;48.78;26.17;;;;;;;2.32;100.00;103620.56;5051657;28;20021;-84
2022/01/14 11:23:14;;;;;;;46.33;25.10;;;;;;;2.37;100.00;103623.41;5052438;28;20036;-84
2022/01/14 11:25:46;;;;;;;;;;;;;;;2.43;100.00;103628.91;5041313;28;20028;-84
2022/01/14 11:28:16;;;;;;;48.65;25.65;;;;;;;2.41;100.00;103631.38;5052465;28;19925;-84
2022/01/14 11:30:41;;;;;;;43.72;25.20;;;;;;;2.44;100.00;103612.63;5052388;28;20388;-84
2022/01/14 11:33:08;;;;;;;51.75;27.88;;;;;;;2.53;100.00;103629.47;5053488;28;20025;-84